METAR / TAF

Die METAR- und TAF-Liste ist aus technischen Gründen (Verfügbarkeit, Update-Zyklen) nicht für ein Meteo-Briefing gedacht. Benutzen Sie stattdessen skybriefing der Skyguide  oder das TAMSI (MeteoSchweiz-eigene Meteo Selfbriefing-Plattform für Firmen aus der Aviatik; Anfragen über das

Kontaktformular

METAR Switzerland

METAR     LSZH 151820Z 20004KT 9999 FEW040TCU SCT110 BKN220 22/13
               Q1015 NOSIG=
METAR     LSZH 151850Z 29005KT 210V340 9999 FEW040TCU SCT110 BKN220
               22/12 Q1016 NOSIG=
METAR     LSGG 151820Z VRB08G21KT 9999 -RA TS SCT055 FEW060CB
               BKN095 20/13 Q1017 NOSIG=
METAR     LSGG 151850Z 36005KT 250V050 9999 -TSRA FEW060 FEW065CB
               SCT100 18/14 Q1017 RETS NOSIG=
METAR     LFSB 151830Z 36006KT 9999 -SHRA FEW050CB BKN093 20/15
               Q1015 TEMPO VRB15G30KT 2000 TSRA=
METAR     LSZB 151820Z 21005KT 140V270 9999 TSRA BKN045CB SCT080
               BKN150 20/13 Q1016 NOSIG=
METAR     LSZB 151850Z 17010KT 9999 -RA SCT045CB SCT080 BKN150
               18/14 Q1017 RETSRA NOSIG=
METAR     LSZA 151820Z 02003KT CAVOK 25/19 Q1012 NOSIG=
METAR     LSZA 151850Z 01003KT CAVOK 24/18 Q1012 NOSIG=
METAR     LSZG 151820Z VRB03KT 9999 -RA FEW070 SCT090 BKN110
               //////TCU 19/14 Q1015 NOSIG=
METAR     LSZG 151850Z AUTO 22005KT 9999 BKN090 //////TCU 19/15
               Q1016=
METAR     LSZR 151820Z 28008KT 230V340 8000 TSRA FEW021 BKN050CB
               19/13 Q1017 NOSIG RMK K=
METAR     LSZR 151850Z AUTO 18008KT 140V210 9999 //////TCU 18/13
               Q1015=
METAR     LSGS 151820Z AUTO 24014G26KT 9999 VCTS SCT///CB 26/10
               Q1013=
METAR     LSGS 151850Z AUTO 31014KT 280V350 9999 TS SCT///CB 25/10
               Q1014=
METAR     LSGC 151820Z AUTO 26009KT 9999 -TSRA SCT042CB BKN050
               14/13 Q1019 RERA=
METAR     LSGC 151850Z AUTO 26005KT 9999 SCT080 BKN100 //////TCU
               14/13 Q1019 RETSRA=
METAR     LSZC 151820Z AUTO 27014KT 7000 TSRA BKN040CB 19/17 Q1017
               RERA=
METAR     LSZC 151850Z AUTO 25014G24KT 6000 +TSRA BKN060CB 15/13
               Q1019=
METAR     LSZL 151820Z NIL=
METAR     LSZL 151850Z AUTO 23004KT 9999NDV FEW038 BKN140 25/20
               Q1012 RMK=
METAR     LSZS 151820Z AUTO VRB02KT 9999 SCT100 //////TCU 12/09
               Q1020=
METAR     LSZS 151850Z AUTO 03008KT 9999 NCD 13/07 Q1021=
METAR     LSMA 151820Z NIL=
METAR     LSMA 151850Z AUTO 21011KT 170V290 7000NDV SHRA FEW027
               BKN051 OVC059 16/13 Q1019 RMK=
METAR     LSMD 151820Z NIL=
METAR     LSMD 151850Z AUTO VRB01KT 9999NDV SCT100 BKN120 19/15
               Q1016 RMK=
METAR     LSME 151820Z NIL=
METAR     LSME NIL=
METAR     LSMM 151820Z NIL=
METAR     LSMM 151850Z NIL=
METAR     LSMP 151820Z NIL=
METAR     LSMP 151850Z AUTO 24009KT 170V280 9999NDV -RA FEW041
               BKN071 BKN091 18/16 Q1018 RERA RMK=
METAR     LSMS 151820Z AUTO 24014G26KT 9999 VCTS SCT///CB 26/10
               Q1013=
METAR     LSMS 151850Z AUTO 31014KT 280V350 9999 TS SCT///CB 25/10
               Q1014=
Updated on Sunday, 15 July 2018, 21:14

TAF Switzerland

TAF     LSZH 151725Z 1518/1624 VRB03KT 9999 FEW060 SCT080 BKN200
             TX28/1615Z TN15/1604Z PROB40 TEMPO 1518/1523 SHRA
             PROB40 TEMPO 1613/1620 SHRA PROB30 TEMPO 1614/1618
             29012KT 3000 TSRA SCT050CB=
TAF     LSGG 151725Z 1518/1624 22010KT 9999 FEW050 BKN250
             TX26/1615Z TN17/1604Z TEMPO 1518/1520 27015G25KT 4500
             TSRA SCT070CB BECMG 1521/1523 VRB04KT PROB30 TEMPO
             1612/1614 TS FEW050CB=
TAF     LFSB 151700Z 1518/1618 VRB03KT CAVOK TEMPO 1518/1524
             FEW060CB PROB40 TEMPO 1518/1521 VRB15G30KT 2000 TSRA
             SCT050CB TEMPO 1610/1618 FEW050CB PROB30 TEMPO
             1612/1618 -TSRA=
TAF     LSGS 151425Z 1515/1524 24013KT 9999 SCT120 BECMG 1518/1520
             VRB04KT TEMPO 1519/1521 SHRA FEW070TCU=
TAF AAA LSZA 151707Z 1517/1524 VRB03KT 9999 FEW060 TEMPO 1518/1523
             SHRA PROB40 TEMPO 1518/1523 35015G30KT TSRA SCT050CB=
TAF     LSZA 151425Z 1515/1524 20008KT 9999 FEW070TCU TEMPO
             1515/1521 SHRA PROB40 TEMPO 1515/1521 35015G30KT TSRA
             SCT050CB=
TAF AAB LSZB 151814Z 1518/1524 VRB03KT 9999 SCT050TCU TEMPO
             1518/1524 SHRA PROB40 TEMPO 1518/1523 27015G30KT 3000
             TSRA SCT050CB=
TAF     LSZB 151425Z 1515/1524 VRB03KT 9999 SCT050TCU TEMPO
             1515/1521 SHRA PROB40 TEMPO 1515/1518 27015G30KT 3000
             TSRA SCT050CB=
TAF     LSZG 151425Z 1515/1524 VRB03KT 9999 FEW050 PROB40 TEMPO
             1512/1521 SHRA SCT050TCU PROB30 TEMPO 1515/1521
             24015G25KT 4000 TSRA SCT050CB=
TAF     LSZR 151425Z 1515/1524 VRB03KT 9999 SCT050TCU TEMPO
             1515/1520 SHRA PROB40 TEMPO 1516/1519 27015G30KT 3000
             TSRA SCT050CB=
TAF     LSGC 151425Z 1515/1524 VRB03KT 9999 FEW060TCU PROB40
             1515/1517 FEW050CB PROB30 TEMPO 1515/1519 27015G25KT
             4000 TSRA=
TAF     LSZS 151425Z 1515/1524 03007KT 9999 SCT070 TX21/1515Z TEMPO
             1515/1524 22010KT SHRA SCT050TCU PROB40 TEMPO
             1515/1521 22015G30KT 4000 TSRA SCT050CB=
TAF     LSMA 151625Z 1517/1623 02006KT 9999 SCT070 TEMPO 1517/1523
             SHRA PROB40 TEMPO 1517/1521 22015G30KT 4000 TSRA
             SCT050CB PROB40 TEMPO 1613/1621 SHRA PROB30 TEMPO
             1615/1621 22015G30KT 4000 TSRA SCT050CB=
TAF     LSMD 151625Z 1517/1623 29009KT 9999 SCT060 TEMPO 1517/1523
             SHRA PROB40 TEMPO 1517/1521 27015G30KT 4000 TSRA
             SCT050CB PROB40 TEMPO 1613/1620 SHRA PROB30 TEMPO
             1615/1618 25015G30KT 4000 TSRA SCT050CB=
TAF     LSME 151625Z 1517/1623 24003KT 9999 SCT070 TEMPO 1517/1523
             SHRA PROB40 TEMPO 1517/1521 27015G30KT 4000 TSRA
             SCT050CB PROB40 TEMPO 1613/1621 SHRA PROB30 TEMPO
             1615/1621 25015G30KT 4000 TSRA SCT050CB=
TAF     LSMM 151625Z 1517/1623 VRB03KT 9999 SCT070 TEMPO 1517/1523
             SHRA PROB40 TEMPO 1517/1521 27015G30KT 4000 TSRA
             SCT050CB PROB40 TEMPO 1613/1621 SHRA PROB30 TEMPO
             1615/1621 25015G30KT 4000 TSRA SCT050CB=
TAF     LSMP 151625Z 1517/1623 VRB04KT 9999 FEW045 PROB40 TEMPO
             1518/1520 4500 TSRA SCT060CB=
Updated on Sunday, 15 July 2018, 21:05